createdAt,value
2018-09-05T00:00:11.512Z,5.30
2018-09-05T00:02:40.262Z,4.90
2018-09-05T00:05:09.753Z,5.20
2018-09-05T00:07:38.458Z,5.12
2018-09-05T00:10:07.723Z,5.12
2018-09-05T00:12:36.402Z,4.72
2018-09-05T00:15:05.869Z,4.70
2018-09-05T00:17:34.619Z,5.03
2018-09-05T00:20:03.267Z,5.12
2018-09-05T00:22:32.056Z,4.90
2018-09-05T00:25:02.035Z,5.25
2018-09-05T00:27:30.664Z,5.08
2018-09-05T00:30:00.768Z,4.65
2018-09-05T00:32:29.301Z,5.03
2018-09-05T00:34:58.045Z,5.15
2018-09-05T00:37:26.659Z,5.10
2018-09-05T00:39:55.470Z,5.20
2018-09-05T00:42:24.001Z,5.15
2018-09-05T00:44:53.395Z,6.42
2018-09-05T00:47:22.140Z,8.03
2018-09-05T00:49:52.084Z,5.45
2018-09-05T00:52:20.715Z,5.17
2018-09-05T00:54:49.395Z,5.30
2018-09-05T00:57:17.912Z,5.03
2018-09-05T00:59:46.460Z,5.42
2018-09-05T01:02:15.571Z,5.03
2018-09-05T01:04:44.332Z,5.25
2018-09-05T01:07:24.375Z,5.50
2018-09-05T01:09:53.696Z,5.27
2018-09-05T01:12:23.286Z,5.40
2018-09-05T01:14:53.044Z,5.37
2018-09-05T01:17:23.760Z,5.33
2018-09-05T01:19:53.710Z,5.47
2018-09-05T01:22:23.137Z,5.65
2018-09-05T01:24:52.019Z,5.67
2018-09-05T01:27:21.291Z,5.65
2018-09-05T01:29:50.648Z,4.97
2018-09-05T01:32:19.537Z,4.92
2018-09-05T01:34:48.429Z,5.40
2018-09-05T01:37:17.357Z,5.03
2018-09-05T01:39:46.195Z,5.60
2018-09-05T01:42:14.872Z,5.72
2018-09-05T01:44:45.280Z,5.78
2018-09-05T01:47:15.009Z,5.33
2018-09-05T01:49:43.632Z,5.87
2018-09-05T01:52:12.765Z,6.22
2018-09-05T01:54:41.392Z,6.00
2018-09-05T01:57:09.980Z,5.72
2018-09-05T01:59:39.055Z,6.05
2018-09-05T02:02:07.864Z,6.12
2018-09-05T02:04:36.692Z,6.22
2018-09-05T02:07:05.891Z,5.87
2018-09-05T02:09:34.617Z,5.87
2018-09-05T02:12:03.359Z,5.70
2018-09-05T02:14:32.113Z,6.30
2018-09-05T02:17:00.738Z,6.22
2018-09-05T02:19:29.495Z,5.47
2018-09-05T02:21:58.320Z,6.13
2018-09-05T02:24:28.096Z,5.72
2018-09-05T02:26:57.972Z,6.87
2018-09-05T02:29:29.964Z,6.15
2018-09-05T02:31:58.859Z,6.28
2018-09-05T02:34:27.528Z,7.87
2018-09-05T02:36:57.347Z,5.80
2018-09-05T02:39:25.984Z,5.67
2018-09-05T02:41:55.122Z,7.67
2018-09-05T02:44:24.500Z,5.92
2018-09-05T02:46:54.029Z,7.40
2018-09-05T02:49:23.576Z,6.43
2018-09-05T02:51:53.030Z,6.67
2018-09-05T02:54:22.474Z,6.53
2018-09-05T02:56:51.990Z,5.90
2018-09-05T02:59:21.210Z,6.12
2018-09-05T03:01:49.781Z,6.40
2018-09-05T03:04:18.385Z,6.55
2018-09-05T03:06:47.912Z,5.97
2018-09-05T03:09:16.820Z,6.13
2018-09-05T03:11:45.408Z,6.50
2018-09-05T03:14:14.628Z,6.58
2018-09-05T03:16:44.282Z,6.22
2018-09-05T03:19:12.826Z,6.37
2018-09-05T03:21:41.398Z,7.35
2018-09-05T03:24:10.675Z,7.30
2018-09-05T03:26:39.913Z,6.92
2018-09-05T03:29:08.516Z,7.78
2018-09-05T03:31:37.719Z,7.92
2018-09-05T03:34:06.415Z,7.35
2018-09-05T03:36:35.046Z,6.67
2018-09-05T03:39:06.184Z,7.17
2018-09-05T03:41:34.714Z,6.80
2018-09-05T03:44:03.616Z,6.97
2018-09-05T03:46:32.456Z,6.53
2018-09-05T03:49:01.320Z,6.50
2018-09-05T03:51:30.127Z,6.50
2018-09-05T03:54:05.400Z,6.97
2018-09-05T03:56:34.135Z,6.75
2018-09-05T03:59:03.645Z,7.08
2018-09-05T04:01:32.658Z,6.95
2018-09-05T04:04:01.992Z,6.47
2018-09-05T04:06:30.761Z,6.87
2018-09-05T04:09:00.300Z,6.90
2018-09-05T04:11:30.165Z,7.53
2018-09-05T04:14:01.099Z,6.35
2018-09-05T04:16:29.956Z,6.97
2018-09-05T04:18:58.705Z,6.83
2018-09-05T04:21:27.465Z,6.85
2018-09-05T04:23:57.068Z,6.53
2018-09-05T04:26:27.203Z,6.67
2018-09-05T04:28:56.445Z,6.78
2018-09-05T04:31:26.722Z,6.75
2018-09-05T04:33:55.394Z,7.00
2018-09-05T04:36:24.248Z,7.30
2018-09-05T04:38:54.499Z,7.00
2018-09-05T04:41:23.357Z,6.67
2018-09-05T04:43:52.663Z,7.10
2018-09-05T04:46:21.519Z,7.65
2018-09-05T04:48:50.335Z,6.92
2018-09-05T04:51:19.426Z,7.55
2018-09-05T04:53:48.138Z,7.17
2018-09-05T04:56:17.708Z,7.20
2018-09-05T04:58:49.591Z,8.17
2018-09-05T05:01:18.684Z,6.97
2018-09-05T05:03:48.307Z,6.77
2018-09-05T05:06:17.702Z,7.73
2018-09-05T05:08:46.608Z,7.93
2018-09-05T05:11:16.211Z,7.70
2018-09-05T05:13:45.202Z,7.60
2018-09-05T05:16:15.500Z,8.10
2018-09-05T05:18:44.352Z,8.17
2018-09-05T05:21:13.672Z,7.67
2018-09-05T05:23:46.181Z,7.45
2018-09-05T05:26:15.035Z,7.77
2018-09-05T05:28:43.720Z,9.23
2018-09-05T05:31:12.286Z,8.23
2018-09-05T05:33:41.546Z,9.72
2018-09-05T05:36:10.524Z,8.45
2018-09-05T05:38:39.767Z,9.55
2018-09-05T05:41:08.726Z,8.33
2018-09-05T05:43:38.228Z,7.83
2018-09-05T05:46:09.395Z,7.80
2018-09-05T05:48:39.095Z,9.18
2018-09-05T05:51:08.605Z,9.10
2018-09-05T05:53:37.569Z,8.13
2018-09-05T05:56:07.589Z,9.28
2018-09-05T05:58:37.141Z,9.73
2018-09-05T06:01:06.031Z,7.60
2018-09-05T06:03:35.097Z,9.13
2018-09-05T06:06:04.025Z,8.40
2018-09-05T06:08:33.518Z,8.70
2018-09-05T06:11:03.228Z,9.03
2018-09-05T06:13:32.411Z,9.20
2018-09-05T06:16:02.310Z,10.03
2018-09-05T06:18:31.292Z,10.20
2018-09-05T06:21:01.018Z,10.30
2018-09-05T06:23:30.334Z,10.75
2018-09-05T06:25:59.869Z,12.37
2018-09-05T06:28:29.517Z,9.80
2018-09-05T06:31:00.424Z,9.10
2018-09-05T06:33:30.468Z,10.00
2018-09-05T06:35:59.371Z,9.53
2018-09-05T06:38:28.320Z,10.80
2018-09-05T06:40:57.273Z,10.23
2018-09-05T06:43:26.338Z,9.75
2018-09-05T06:45:56.002Z,9.20
2018-09-05T06:48:25.250Z,10.70
2018-09-05T06:51:11.583Z,10.30
2018-09-05T06:53:40.345Z,11.03
2018-09-05T06:56:09.535Z,11.18
2018-09-05T06:58:40.607Z,10.80
2018-09-05T07:01:09.228Z,9.68
2018-09-05T07:03:37.961Z,11.83
2018-09-05T07:06:06.586Z,13.70
2018-09-05T07:08:36.239Z,13.78
2018-09-05T07:11:04.954Z,13.28
2018-09-05T07:13:34.544Z,14.07
2018-09-05T07:16:04.283Z,15.07
2018-09-05T07:18:34.124Z,15.70
2018-09-05T07:21:06.400Z,15.28
2018-09-05T07:23:34.597Z,14.30
2018-09-05T07:26:04.720Z,14.83
2018-09-05T07:28:33.763Z,18.35
2018-09-05T07:31:04.058Z,15.15
2018-09-05T07:33:33.564Z,16.82
2018-09-05T07:36:02.979Z,18.77
2018-09-05T07:38:32.041Z,18.80
2018-09-05T07:41:00.986Z,17.62
2018-09-05T07:43:31.197Z,18.52
2018-09-05T07:46:00.025Z,17.63
2018-09-05T07:48:28.838Z,21.17
2018-09-05T07:50:58.143Z,19.42
2018-09-05T07:53:27.710Z,20.30
2018-09-05T07:55:56.395Z,25.05
2018-09-05T07:58:26.178Z,30.55
2018-09-05T08:00:55.236Z,36.57
2018-09-05T08:03:23.974Z,31.42
2018-09-05T08:05:54.959Z,35.95
2018-09-05T08:08:24.279Z,30.12
2018-09-05T08:10:54.100Z,27.48
2018-09-05T08:13:22.968Z,24.40
2018-09-05T08:15:51.574Z,23.80
2018-09-05T08:18:20.276Z,24.30
2018-09-05T08:20:49.052Z,29.25
2018-09-05T08:23:17.652Z,26.30
2018-09-05T08:25:46.330Z,23.73
2018-09-05T08:28:15.002Z,28.87
2018-09-05T08:30:54.230Z,27.45
2018-09-05T08:33:22.956Z,27.50
2018-09-05T08:35:52.352Z,23.55
2018-09-05T08:38:20.624Z,24.45
2018-09-05T08:40:50.876Z,25.62
2018-09-05T08:43:19.627Z,23.20
2018-09-05T08:45:49.261Z,26.00
2018-09-05T08:48:17.803Z,25.60
2018-09-05T08:50:47.236Z,23.12
2018-09-05T08:53:15.935Z,22.55
2018-09-05T08:55:45.202Z,23.32
2018-09-05T08:58:13.790Z,20.57
2018-09-05T09:00:43.807Z,21.10
2018-09-05T09:03:12.461Z,21.48
2018-09-05T09:05:41.095Z,21.95
2018-09-05T09:08:09.902Z,21.10
2018-09-05T09:10:39.564Z,18.77
2018-09-05T09:13:08.436Z,19.85
2018-09-05T09:15:37.844Z,21.77
2018-09-05T09:18:07.035Z,20.57
2018-09-05T09:20:35.700Z,17.87
2018-09-05T09:23:05.735Z,18.40
2018-09-05T09:25:36.851Z,17.40
2018-09-05T09:28:06.193Z,20.08
2018-09-05T09:30:35.940Z,17.32
2018-09-05T09:33:05.121Z,17.00
2018-09-05T09:35:35.121Z,14.07
2018-09-05T09:38:04.796Z,12.40
2018-09-05T09:40:34.134Z,11.43
2018-09-05T09:43:03.527Z,9.88
2018-09-05T09:45:32.229Z,13.22
2018-09-05T09:48:01.239Z,13.05
2018-09-05T09:50:30.638Z,14.13
2018-09-05T09:52:59.559Z,11.70
2018-09-05T09:55:28.221Z,9.95
2018-09-05T09:57:57.096Z,10.35
2018-09-05T10:00:31.449Z,9.18
2018-09-05T10:03:05.504Z,7.58
2018-09-05T10:05:40.526Z,7.15
2018-09-05T10:08:14.299Z,7.40
2018-09-05T10:10:48.372Z,6.70
2018-09-05T10:13:22.038Z,7.07
2018-09-05T10:15:55.851Z,6.70
2018-09-05T10:18:26.705Z,6.58
2018-09-05T10:20:56.067Z,6.25
2018-09-05T10:23:24.992Z,6.75
2018-09-05T10:25:53.752Z,5.80
2018-09-05T10:28:22.512Z,6.30
2018-09-05T10:30:52.933Z,6.20
2018-09-05T10:33:21.470Z,6.00
2018-09-05T10:35:50.621Z,6.03
2018-09-05T10:38:19.253Z,6.10
2018-09-05T10:40:48.027Z,6.37
2018-09-05T10:43:16.662Z,5.40
2018-09-05T10:45:46.364Z,6.15
2018-09-05T10:48:15.331Z,5.30
2018-09-05T10:50:44.186Z,5.72
2018-09-05T10:53:13.071Z,5.72
2018-09-05T10:55:42.926Z,5.05
2018-09-05T10:58:12.423Z,6.78
2018-09-05T11:00:41.318Z,4.60
2018-09-05T11:03:10.396Z,5.17
2018-09-05T11:05:39.006Z,4.95
2018-09-05T11:08:08.158Z,5.12
2018-09-05T11:10:37.079Z,5.85
2018-09-05T11:13:05.833Z,5.40
2018-09-05T11:15:34.460Z,5.28
2018-09-05T11:18:03.138Z,5.00
2018-09-05T11:20:32.059Z,4.97
2018-09-05T11:23:00.763Z,4.55
2018-09-05T11:25:29.805Z,4.35
2018-09-05T11:27:59.407Z,5.00
2018-09-05T11:30:28.616Z,6.25
2018-09-05T11:32:57.476Z,4.70
2018-09-05T11:35:27.103Z,4.20
2018-09-05T11:37:55.998Z,4.20
2018-09-05T11:40:24.839Z,4.78
2018-09-05T11:42:54.366Z,4.50
2018-09-05T11:45:23.099Z,4.50
2018-09-05T11:47:51.966Z,4.33
2018-09-05T11:50:20.621Z,4.25
2018-09-05T11:52:49.723Z,4.12
2018-09-05T11:55:18.614Z,4.50
2018-09-05T11:57:47.347Z,4.83
2018-09-05T12:00:16.546Z,4.20
2018-09-05T12:02:45.221Z,4.22
2018-09-05T12:05:13.968Z,4.35
2018-09-05T12:07:43.603Z,4.42
2018-09-05T12:10:12.388Z,4.40
2018-09-05T12:12:41.367Z,4.37
2018-09-05T12:15:11.277Z,4.40
2018-09-05T12:17:40.608Z,4.12
2018-09-05T12:20:10.246Z,4.22
2018-09-05T12:22:38.997Z,4.53
2018-09-05T12:25:07.654Z,4.22
2018-09-05T12:27:37.695Z,4.35
2018-09-05T12:30:06.495Z,4.35
2018-09-05T12:32:35.188Z,4.10
2018-09-05T12:35:06.383Z,4.17
2018-09-05T12:37:35.148Z,4.03
2018-09-05T12:40:05.437Z,4.03
2018-09-05T12:42:34.816Z,4.28
2018-09-05T12:45:04.023Z,4.20
2018-09-05T12:47:32.695Z,4.15
2018-09-05T12:50:01.478Z,4.20
2018-09-05T12:52:31.859Z,4.37
2018-09-05T12:55:00.686Z,4.27
2018-09-05T12:57:30.324Z,4.50
2018-09-05T12:59:58.958Z,4.03
2018-09-05T13:02:27.600Z,4.05
2018-09-05T13:04:56.371Z,4.10
2018-09-05T13:07:24.973Z,5.10
2018-09-05T13:09:53.616Z,4.00
2018-09-05T13:12:23.435Z,4.65
2018-09-05T13:14:52.344Z,4.53
2018-09-05T13:17:20.979Z,4.35
2018-09-05T13:19:49.921Z,4.17
2018-09-05T13:22:18.607Z,4.70
2018-09-05T13:24:48.053Z,4.25
2018-09-05T13:27:16.810Z,4.08
2018-09-05T13:29:45.474Z,4.20
2018-09-05T13:32:14.079Z,5.15
2018-09-05T13:34:42.741Z,4.40
2018-09-05T13:37:12.368Z,4.40
2018-09-05T13:39:41.177Z,5.62
2018-09-05T13:42:09.885Z,4.62
2018-09-05T13:44:38.478Z,4.50
2018-09-05T13:47:07.190Z,4.28
2018-09-05T13:49:36.007Z,4.30
2018-09-05T13:52:06.593Z,4.17
2018-09-05T13:54:36.796Z,4.20
2018-09-05T13:57:06.333Z,4.60
2018-09-05T13:59:35.046Z,3.98
2018-09-05T14:02:04.928Z,4.28
2018-09-05T14:04:33.460Z,4.37
2018-09-05T14:07:02.863Z,4.10
2018-09-05T14:09:31.655Z,4.15
2018-09-05T14:12:00.412Z,4.42
2018-09-05T14:14:29.378Z,4.28
2018-09-05T14:16:58.320Z,4.42
2018-09-05T14:19:27.165Z,4.25
2018-09-05T14:21:56.105Z,4.60
2018-09-05T14:24:25.579Z,4.70
2018-09-05T14:26:54.476Z,4.40
2018-09-05T14:29:23.318Z,5.03
2018-09-05T14:31:52.553Z,4.50
2018-09-05T14:34:21.320Z,4.00
2018-09-05T14:36:50.211Z,4.40
2018-09-05T14:39:20.718Z,4.58
2018-09-05T14:41:50.788Z,4.40
2018-09-05T14:44:26.100Z,4.67
2018-09-05T14:46:55.094Z,5.37
2018-09-05T14:49:23.906Z,4.10
2018-09-05T14:51:52.927Z,4.37
2018-09-05T14:54:21.733Z,4.90
2018-09-05T14:56:51.180Z,4.70
2018-09-05T14:59:19.749Z,4.17
2018-09-05T15:01:48.499Z,5.00
2018-09-05T15:04:17.308Z,4.72
2018-09-05T15:06:46.092Z,5.15
2018-09-05T15:09:15.112Z,5.10
2018-09-05T15:11:45.827Z,4.95
2018-09-05T15:14:14.840Z,4.28
2018-09-05T15:16:43.809Z,4.33
2018-09-05T15:22:01.856Z,4.50
2018-09-05T15:24:31.674Z,4.67
2018-09-05T15:27:00.318Z,4.90
2018-09-05T15:29:29.903Z,4.50
2018-09-05T15:31:58.975Z,5.00
2018-09-05T15:34:29.014Z,5.17
2018-09-05T15:36:59.036Z,4.80
2018-09-05T15:39:27.768Z,4.60
2018-09-05T15:41:57.247Z,4.40
2018-09-05T15:44:27.064Z,4.53
2018-09-05T15:46:57.970Z,4.78
2018-09-05T15:49:26.604Z,4.60
2018-09-05T15:51:56.525Z,4.97
2018-09-05T15:54:27.558Z,5.00
2018-09-05T15:56:56.258Z,9.15
2018-09-05T15:59:24.979Z,19.87
2018-09-05T16:01:55.052Z,14.00
2018-09-05T16:04:25.000Z,14.35
2018-09-05T16:06:54.746Z,9.73
2018-09-05T16:09:23.817Z,9.50
2018-09-05T16:11:52.804Z,6.20
2018-09-05T16:17:30.330Z,5.90
2018-09-05T16:20:03.313Z,5.90
2018-09-05T16:22:35.045Z,5.60
2018-09-05T16:25:03.964Z,5.37
2018-09-05T16:27:38.377Z,5.37
2018-09-05T16:30:07.686Z,5.15
2018-09-05T16:32:39.555Z,5.03
2018-09-05T16:35:08.380Z,5.10
2018-09-05T16:37:36.967Z,5.60
2018-09-05T16:40:05.749Z,5.40
2018-09-05T16:42:34.448Z,4.97
2018-09-05T16:45:03.439Z,4.97
2018-09-05T16:47:32.141Z,4.87
2018-09-05T16:50:00.893Z,5.28
2018-09-05T16:52:30.713Z,4.87
2018-09-05T16:54:59.781Z,5.10
2018-09-05T16:57:29.841Z,4.97
2018-09-05T16:59:58.525Z,4.78
2018-09-05T17:02:27.222Z,5.25
2018-09-05T17:04:57.282Z,4.85
2018-09-05T17:07:25.980Z,5.12
2018-09-05T17:09:55.682Z,5.03
2018-09-05T17:12:24.700Z,5.17
2018-09-05T17:14:53.694Z,5.17
2018-09-05T17:17:23.885Z,5.28
2018-09-05T17:19:52.575Z,5.50
2018-09-05T17:22:22.276Z,5.45
2018-09-05T17:24:51.127Z,4.83
2018-09-05T17:27:20.736Z,6.05
2018-09-05T17:29:49.927Z,6.97
2018-09-05T17:32:18.631Z,5.10
2018-09-05T17:34:55.103Z,5.28
2018-09-05T17:37:24.193Z,5.83
2018-09-05T17:39:53.493Z,6.12
2018-09-05T17:42:23.100Z,6.03
2018-09-05T17:44:52.172Z,5.10
2018-09-05T17:47:22.551Z,5.55
2018-09-05T17:49:52.259Z,5.47
2018-09-05T17:52:20.993Z,5.10
2018-09-05T17:54:50.426Z,5.15
2018-09-05T17:57:21.215Z,5.90
2018-09-05T17:59:50.084Z,5.25
2018-09-05T18:02:18.733Z,5.78
2018-09-05T18:04:47.853Z,5.45
2018-09-05T18:07:18.147Z,5.47
2018-09-05T18:23:13.043Z,5.08
2018-09-05T18:25:42.624Z,5.40
2018-09-05T18:28:11.646Z,5.70
2018-09-05T18:30:41.618Z,5.70
2018-09-05T18:33:12.288Z,5.78
2018-09-05T18:35:41.380Z,5.95
2018-09-05T18:38:10.956Z,5.95
2018-09-05T18:40:40.610Z,6.00
2018-09-05T18:43:09.772Z,6.47
2018-09-05T18:45:39.005Z,5.47
2018-09-05T18:48:09.213Z,5.80
2018-09-05T18:50:39.839Z,7.08
2018-09-05T18:53:13.605Z,5.62
2018-09-05T18:55:44.600Z,6.05
2018-09-05T18:58:13.791Z,6.22
2018-09-05T19:00:42.931Z,6.35
2018-09-05T19:03:13.357Z,6.42
2018-09-05T19:05:42.157Z,5.97
2018-09-05T19:08:10.709Z,6.12
2018-09-05T19:10:40.203Z,6.05
2018-09-05T19:13:08.912Z,6.17
2018-09-05T19:15:38.493Z,6.47
2018-09-05T19:18:08.275Z,6.62
2018-09-05T19:20:37.211Z,6.92
2018-09-05T19:23:07.770Z,6.40
2018-09-05T19:25:37.324Z,6.05
2018-09-05T19:28:07.545Z,6.80
2018-09-05T19:30:37.029Z,6.72
2018-09-05T19:33:06.525Z,6.87
2018-09-05T19:35:37.117Z,6.92
2018-09-05T19:38:07.201Z,6.50
2018-09-05T19:40:36.208Z,6.65
2018-09-05T19:43:04.989Z,6.50
2018-09-05T19:45:33.606Z,6.17
2018-09-05T19:48:03.527Z,6.30
2018-09-05T19:50:32.269Z,6.47
2018-09-05T19:53:01.837Z,6.53
2018-09-05T19:55:30.980Z,6.58
2018-09-05T19:57:59.905Z,6.30
2018-09-05T20:00:29.960Z,6.58
2018-09-05T20:02:58.461Z,6.17
2018-09-05T20:05:28.694Z,7.00
2018-09-05T20:08:01.751Z,6.80
2018-09-05T20:10:30.490Z,7.15
2018-09-05T20:12:59.321Z,6.92
2018-09-05T20:15:28.094Z,7.37
2018-09-05T20:17:57.029Z,7.20
2018-09-05T20:20:25.986Z,6.65
2018-09-05T20:22:58.869Z,7.20
2018-09-05T20:25:36.873Z,7.30
2018-09-05T20:28:12.374Z,6.42
2018-09-05T20:30:40.988Z,6.40
2018-09-05T20:33:09.573Z,7.17
2018-09-05T20:35:38.105Z,6.33
2018-09-05T20:38:06.811Z,7.03
2018-09-05T20:40:36.419Z,7.00
2018-09-05T20:43:05.640Z,6.20
2018-09-05T20:45:34.388Z,6.62
2018-09-05T20:48:03.513Z,6.25
2018-09-05T20:50:32.630Z,6.85
2018-09-05T20:53:01.969Z,7.15
2018-09-05T20:55:30.656Z,6.80
2018-09-05T20:57:59.526Z,7.37
2018-09-05T21:00:29.381Z,6.53
2018-09-05T21:02:58.231Z,6.70
2018-09-05T21:05:27.692Z,6.78
2018-09-05T21:07:56.295Z,6.78
2018-09-05T21:10:25.602Z,6.75
2018-09-05T21:12:55.171Z,6.92
2018-09-05T21:15:23.947Z,7.22
2018-09-05T21:17:52.655Z,7.12
2018-09-05T21:20:21.914Z,6.37
2018-09-05T21:22:50.616Z,7.45
2018-09-05T21:25:19.406Z,7.33
2018-09-05T21:27:49.170Z,7.10
2018-09-05T21:30:18.341Z,6.58
2018-09-05T21:32:46.981Z,7.53
2018-09-05T21:35:15.667Z,7.45
2018-09-05T21:37:44.549Z,7.47
2018-09-05T21:40:14.067Z,7.25
2018-09-05T21:42:43.699Z,7.15
2018-09-05T21:45:12.537Z,8.80
2018-09-05T21:47:41.284Z,7.55
2018-09-05T21:50:09.941Z,7.20
2018-09-05T21:52:38.641Z,8.95
2018-09-05T21:55:09.269Z,6.58
2018-09-05T21:57:38.399Z,7.20
2018-09-05T22:00:09.055Z,8.18
2018-09-05T22:02:37.982Z,7.55
2018-09-05T22:05:06.877Z,6.87
2018-09-05T22:07:35.667Z,7.10
2018-09-05T22:10:04.309Z,6.85
2018-09-05T22:12:33.067Z,7.92
2018-09-05T22:15:02.558Z,8.48
2018-09-05T22:17:31.230Z,7.30
2018-09-05T22:20:00.116Z,7.97
2018-09-05T22:22:28.947Z,6.83
2018-09-05T22:24:58.226Z,8.03
2018-09-05T22:27:27.524Z,8.18
2018-09-05T22:29:57.647Z,7.72
2018-09-05T22:32:26.683Z,7.33
2018-09-05T22:34:55.410Z,8.10
2018-09-05T22:37:25.311Z,7.72
2018-09-05T22:39:54.473Z,7.92
2018-09-05T22:42:23.117Z,8.45
2018-09-05T22:45:02.980Z,8.93
2018-09-05T22:47:43.564Z,9.28
2018-09-05T22:51:25.328Z,8.10
2018-09-05T22:54:11.094Z,8.38
2018-09-05T22:59:04.277Z,8.03
2018-09-05T23:01:57.796Z,9.30
2018-09-05T23:04:44.214Z,8.40
2018-09-05T23:07:24.098Z,8.60
2018-09-05T23:10:03.892Z,8.20
2018-09-05T23:12:44.257Z,8.48
2018-09-05T23:16:26.704Z,8.25
2018-09-05T23:19:07.272Z,8.35
2018-09-05T23:21:37.214Z,8.53
2018-09-05T23:24:08.132Z,8.28
2018-09-05T23:26:37.665Z,8.48
2018-09-05T23:29:06.364Z,8.13
2018-09-05T23:31:35.192Z,8.75
2018-09-05T23:34:04.804Z,7.92
2018-09-05T23:36:33.408Z,8.30
2018-09-05T23:39:02.657Z,8.60
2018-09-05T23:41:31.701Z,8.80
2018-09-05T23:44:00.355Z,8.68
2018-09-05T23:46:29.361Z,9.08
2018-09-05T23:48:59.060Z,8.20
2018-09-05T23:51:28.038Z,8.30
2018-09-05T23:53:57.027Z,9.38
2018-09-05T23:56:26.847Z,8.83
2018-09-05T23:58:55.921Z,9.88
